WEATHER DATA

YESTERDAY
Time Temp. Dewp. Hum. Wind dir Wind speed Wind gust Bar. 1h Prec. 24h Prec.
00:08 18.9 14 73 239 2.5 3.6 1023.8 0.0000 0.0000
00:18 18.8 14.1 74 238 2.5 3.6 1023.8 0.0000 0.0000
00:28 18.7 14 74 241 2.5 3.3 1023.9 0.0000 0.0000
00:38 18.6 13.9 74 243 2.8 3.6 1023.9 0.0000 0.0000
00:58 18.2 13.9 76 255 3.1 3.9 1024 0.0000 0.0000
01:08 18.1 13.8 76 257 3.1 4.4 1024.1 0.0000 0.0000
01:19 18 13.7 76 275 2.8 4.2 1024.2 0.0000 0.0000
01:29 17.9 13.8 77 265 3.1 4.4 1024.2 0.0000 0.0000
01:38 17.7 13.8 78 260 3.6 5 1024.1 0.0000 0.0000
01:48 17.7 13.8 78 261 3.6 5 1024.1 0.0000 0.0000
01:59 17.6 13.7 78 258 3.3 5 1024.1 0.0000 0.0000
02:09 17.5 13.6 78 259 3.3 5 1024.1 0.0000 0.0000
02:18 17.5 13.6 78 261 3.3 4.7 1024 0.0000 0.0000
02:29 17.4 13.5 78 259 3.3 4.7 1023.9 0.0000 0.0000
02:39 17.4 13.7 79 259 3.3 4.4 1023.9 0.0000 0.0000
02:49 17.3 13.6 79 262 3.1 4.7 1023.9 0.0000 0.0000
02:59 17.2 13.7 80 262 3.1 4.4 1024 0.0000 0.0000
03:09 17.1 13.6 80 261 3.1 4.2 1024 0.0000 0.0000
03:19 17 13.5 80 264 3.3 4.4 1024 0.0000 0.0000
03:29 16.9 13.4 80 260 3.3 4.7 1024 0.0000 0.0000
03:40 16.9 13.4 80 262 3.3 5 1024 0.0000 0.0000
03:50 16.8 13.3 80 263 3.3 4.7 1023.9 0.0000 0.0000
03:59 16.8 13.3 80 260 3.3 5 1023.9 0.0000 0.0000
04:09 16.7 13.2 80 261 3.3 4.7 1023.9 0.0000 0.0000
04:20 16.7 13.4 81 265 3.3 4.4 1024 0.0000 0.0000
04:30 16.6 13.3 81 270 3.1 4.7 1024 0.0000 0.0000
04:39 16.5 13.2 81 265 3.1 4.4 1024 0.0000 0.0000
04:50 16.4 13.1 81 264 3.3 4.4 1024 0.0000 0.0000
05:00 16.4 13.1 81 261 3.6 5.3 1024 0.0000 0.0000
05:10 16.3 13 81 262 3.3 4.4 1024 0.0000 0.0000
05:20 16.2 13.1 82 261 3.3 5 1024 0.0000 0.0000
05:30 16.2 13.1 82 258 3.3 5 1024.1 0.0000 0.0000
05:40 16.1 13 82 266 3.3 4.7 1024 0.0000 0.0000
05:50 16.1 13 82 261 3.1 5 1024 0.0000 0.0000
06:01 16.1 13.2 83 261 3.6 5 1024 0.0000 0.0000
06:10 16.1 13.2 83 262 3.3 5.3 1024 0.0000 0.0000
06:20 16.1 13.2 83 260 3.3 4.7 1024.1 0.0000 0.0000
06:30 16.2 13.3 83 264 3.1 4.2 1024 0.0000 0.0000
06:41 16.4 13.9 85 255 3.1 3.9 1024.1 0.0000 0.0000
06:51 16.7 14.2 85 250 2.5 3.6 1024.1 0.0000 0.0000
07:00 17 14.3 84 254 2.8 3.9 1024.1 0.0000 0.0000
07:11 17.6 14.9 84 255 2.2 3.1 1024.2 0.0000 0.0000
07:21 18.5 15.6 83 239 1.4 2.8 1024.2 0.0000 0.0000
07:32 19.9 16.3 80 229 4.4 10 1024.2 0.0000 0.0000
07:44 21.9 17.1 74 9 3.3 8.6 1024.3 0.0000 0.0000
07:54 23.6 17.4 68 95 2.5 6.7 1024.3 0.0000 0.0000
08:04 25 17.2 62 103 3.3 6.9 1024.3 0.0000 0.0000
08:15 26.4 17.5 58 160 2.2 5 1024.3 0.0000 0.0000
08:25 27.6 17.8 55 2.5 6.4 1024.3 0.0000 0.0000
08:34 28.1 17.6 53 296 2.2 4.2 1024.3 0.0000 0.0000
08:45 28.7 17.9 52 299 2.2 4.2 1024.3 0.0000 0.0000
08:55 29.5 18.3 51 327 2.2 4.2 1024.3 0.0000 0.0000
09:05 29.9 18 49 1.9 3.6 1024.3 0.0000 0.0000
09:15 30.1 18.2 49 286 2.2 4.2 1024.3 0.0000 0.0000
09:25 30.5 18.6 49 301 1.9 3.9 1024.3 0.0000 0.0000
09:35 30.9 18.6 48 255 2.2 3.9 1024.2 0.0000 0.0000
09:45 30.8 18.5 48 298 2.5 3.9 1024.2 0.0000 0.0000
09:56 31.2 18.9 48 291 2.2 3.9 1024.2 0.0000 0.0000
10:05 31.4 18.7 47 275 2.2 4.2 1024.1 0.0000 0.0000
10:15 31.5 18.8 47 299 1.9 3.3 1024.1 0.0000 0.0000
10:25 31.6 18.6 46 304 1.9 3.6 1024.1 0.0000 0.0000
10:36 31.5 17.8 44 329 2.2 4.4 1024 0.0000 0.0000
10:46 31.7 18.3 45 249 2.2 3.6 1024 0.0000 0.0000
10:55 32 18.6 45 191 2.8 5 1023.9 0.0000 0.0000
11:06 32.1 18.3 44 214 1.9 3.6 1023.9 0.0000 0.0000
11:16 32.2 18 43 246 2.5 4.7 1023.8 0.0000 0.0000
11:26 32.3 17.8 42 2.2 5.3 1023.8 0.0000 0.0000
11:36 32.4 17.5 41 236 1.7 3.9 1023.7 0.0000 0.0000
11:46 32.5 17.6 41 161 2.5 3.9 1023.6 0.0000 0.0000
11:56 32.5 17.2 40 163 1.9 5 1023.5 0.0000 0.0000
12:06 32.5 17.2 40 2.5 4.7 1023.4 0.0000 0.0000
12:17 32.5 17.6 41 213 2.2 3.3 1023.3 0.0000 0.0000
12:26 32.5 17.2 40 240 1.9 3.6 1023.2 0.0000 0.0000
12:36 32.4 17.1 40 222 1.7 2.8 1023.1 0.0000 0.0000
12:46 32.3 16.2 38 167 1.9 2.8 1023.1 0.0000 0.0000
12:57 32.3 17 40 186 2.5 3.6 1023 0.0000 0.0000
13:06 32.4 16.7 39 124 1.4 2.2 1022.9 0.0000 0.0000
13:16 32.3 16.6 39 152 2.5 3.6 1022.8 0.0000 0.0000
13:27 32.4 15.8 37 164 2.2 3.9 1022.8 0.0000 0.0000
13:37 32.4 15.4 36 164 2.5 4.2 1022.7 0.0000 0.0000
13:47 32.5 15.9 37 160 2.2 3.6 1022.6 0.0000 0.0000
13:57 32.6 16.4 38 163 2.5 5.3 1022.6 0.0000 0.0000
14:07 32.6 15.2 35 178 2.5 4.2 1022.4 0.0000 0.0000
14:17 32.6 16.4 38 167 1.9 3.3 1022.4 0.0000 0.0000
14:27 32.6 16 37 182 2.5 3.6 1022.3 0.0000 0.0000
14:37 32.6 16.9 39 173 1.9 4.2 1022.2 0.0000 0.0000
14:47 32.6 16 37 166 1.9 4.2 1022.2 0.0000 0.0000
14:57 32.5 15.5 36 155 3.6 5.3 1022.1 0.0000 0.0000
15:07 32.6 15.6 36 195 1.9 2.8 1022 0.0000 0.0000
15:18 32.5 15.9 37 192 1.4 2.2 1021.8 0.0000 0.0000
15:27 32.5 15.5 36 212 2.2 2.8 1021.8 0.0000 0.0000
15:37 32.6 16 37 161 1.4 2.8 1021.7 0.0000 0.0000
15:48 32.6 15.6 36 165 2.2 3.6 1021.7 0.0000 0.0000
15:58 32.2 15.7 37 189 2.2 4.4 1021.6 0.0000 0.0000
16:08 32.3 15.8 37 203 2.2 4.2 1021.5 0.0000 0.0000
16:18 32.4 16.3 38 228 1.9 2.5 1021.5 0.0000 0.0000
16:28 32.4 15.4 36 188 2.2 3.9 1021.4 0.0000 0.0000
16:38 32.4 15.8 37 178 2.5 3.6 1021.3 0.0000 0.0000
16:48 32.4 16.3 38 183 1.9 3.6 1021.2 0.0000 0.0000
16:58 32.4 15.8 37 177 1.9 3.9 1021.1 0.0000 0.0000
17:08 32.4 15.8 37 293 2.2 3.9 1021.1 0.0000 0.0000
17:18 32.4 15.8 37 248 1.9 3.9 1021.1 0.0000 0.0000
17:28 32.4 15.8 37 201 1.4 2.5 1020.9 0.0000 0.0000
17:39 32.3 15.8 37 175 1.1 3.1 1020.8 0.0000 0.0000
17:48 32.2 15.7 37 182 1.7 3.3 1020.8 0.0000 0.0000
17:58 32.2 15.7 37 171 2.2 6.4 1020.7 0.0000 0.0000
18:09 32.1 16 38 211 1.9 3.3 1020.6 0.0000 0.0000
18:19 32 15.9 38 241 1.9 5 1020.6 0.0000 0.0000
18:28 32 15.9 38 284 1.9 4.7 1020.5 0.0000 0.0000
18:39 31.8 15.7 38 252 2.2 3.9 1020.5 0.0000 0.0000
18:49 31.7 15.6 38 342 1.9 5 1020.5 0.0000 0.0000
18:59 31.5 15.5 38 315 1.7 3.9 1020.4 0.0000 0.0000
19:09 31.4 15.8 39 270 2.2 3.6 1020.4 0.0000 0.0000
19:19 31.2 16 40 2.2 5.6 1020.4 0.0000 0.0000
19:29 31 16.6 42 11 2.2 4.2 1020.5 0.0000 0.0000
19:39 30.8 17.5 45 37 1.9 3.9 1020.5 0.0000 0.0000
19:49 30.5 17.2 45 90 2.5 5.6 1020.6 0.0000 0.0000
20:00 30.3 17.7 47 104 2.5 6.7 1020.7 0.0000 0.0000
20:09 30 17.8 48 2.5 6.4 1020.8 0.0000 0.0000
20:19 29.6 17.8 49 219 2.5 4.4 1020.9 0.0000 0.0000
20:30 29.1 17.6 50 229 2.8 4.7 1020.9 0.0000 0.0000
20:40 28.8 17.7 51 232 2.5 3.9 1021.1 0.0000 0.0000
20:49 28.4 17.6 52 55 1.9 3.1 1021.1 0.0000 0.0000
21:05 27.6 18 56 250 2.2 7.2 1021.1 0.0000 0.0000
21:14 26.9 17.7 57 230 2.5 3.9 1021.2 0.0000 0.0000
21:24 26.1 17.5 59 236 0.3 0.8 1021.2 0.0000 0.0000
21:35 25.4 17.8 63 270 0.6 1.4 1021.3 0.0000 0.0000
21:45 24.8 17.8 65 253 0.6 1.4 1021.4 0.0000 0.0000
21:54 24.2 17.5 66 261 1.1 1.7 1021.5 0.0000 0.0000
22:04 23.7 17.2 67 257 1.1 2.5 1021.5 0.0000 0.0000
22:15 23.3 17.1 68 247 1.4 2.5 1021.5 0.0000 0.0000
22:25 23 17 69 248 1.1 1.9 1021.5 0.0000 0.0000
22:35 22.7 16.7 69 249 1.4 2.5 1021.5 0.0000 0.0000
22:45 22.4 16.7 70 246 1.4 2.2 1021.6 0.0000 0.0000
22:55 22.2 16.7 71 258 1.4 2.8 1021.5 0.0000 0.0000
23:05 22 16.7 72 236 1.9 3.6 1021.5 0.0000 0.0000
23:15 21.7 16.7 73 238 1.9 3.1 1021.5 0.0000 0.0000
23:26 21.5 16.5 73 239 1.9 2.8 1021.5 0.0000 0.0000
23:35 21.3 16.5 74 241 1.7 2.2 1021.5 0.0000 0.0000
23:45 21.1 16.5 75 241 1.9 2.8 1021.5 0.0000 0.0000
23:56 20.9 16.5 76 247 2.2 3.6 1021.4 0.0000

DAY STATISTIC

2020-08-09
TEMPERATURE
AVERAGE
25.9
HIGH
32.6
13:57
LOW
16.1
05:40
PRESSURE
AVERAGE
1022.8
HIGH
1024.3
07:44
LOW
1020.4
18:59
DEWPOINT
AVERAGE
15.9
HIGH
18.9
09:56
LOW
13.0
05:10
HUMIDITY
AVERAGE
58
HIGH
85
06:41
LOW
35
14:07
WIND SPEED
AVERAGE
2.4
HIGH
4.4
07:32
WIND GUST
AVERAGE
4.1
HIGH
10.0
07:32
WIND DIRECTION
PREVAILING
W
39%
N
2.1
NE
1.4
E
2.8
SE
2.1
S
20.6
SW
20.6
W
39.0
NW
7.1
PRECIPITATION
RAIN HOUR
0.0
RAIN DAY
0.0
TEMPERATURE (°C)
LOW
16.1
HIGH
32.6
AVERAGE
25.9
PRESSURE (hpa)
LOW
1020.4
HIGH
1024.3
AVERAGE
1022.8
DEVICE